sensor_id;sensor_type;location;lat;lon;timestamp;P1;durP1;ratioP1;P2;durP2;ratioP2
5981;SDS011;3018;48.730;9.336;2024-02-21T00:02:08;8.30;;;5.63;;
5981;SDS011;3018;48.730;9.336;2024-02-21T00:04:34;13.80;;;5.80;;
5981;SDS011;3018;48.730;9.336;2024-02-21T00:07:01;10.85;;;6.20;;
5981;SDS011;3018;48.730;9.336;2024-02-21T00:09:29;14.80;;;6.35;;
5981;SDS011;3018;48.730;9.336;2024-02-21T00:11:55;11.10;;;6.00;;
5981;SDS011;3018;48.730;9.336;2024-02-21T00:14:21;17.02;;;6.28;;
5981;SDS011;3018;48.730;9.336;2024-02-21T00:16:47;11.70;;;6.63;;
5981;SDS011;3018;48.730;9.336;2024-02-21T00:19:14;17.23;;;6.35;;
5981;SDS011;3018;48.730;9.336;2024-02-21T00:21:40;11.85;;;7.07;;
5981;SDS011;3018;48.730;9.336;2024-02-21T00:24:06;11.20;;;6.40;;
5981;SDS011;3018;48.730;9.336;2024-02-21T00:26:34;15.18;;;6.80;;
5981;SDS011;3018;48.730;9.336;2024-02-21T00:29:00;16.27;;;7.32;;
5981;SDS011;3018;48.730;9.336;2024-02-21T00:31:27;15.50;;;7.07;;
5981;SDS011;3018;48.730;9.336;2024-02-21T00:33:53;12.73;;;6.47;;
5981;SDS011;3018;48.730;9.336;2024-02-21T00:36:19;13.73;;;6.95;;
5981;SDS011;3018;48.730;9.336;2024-02-21T00:38:45;11.25;;;6.55;;
5981;SDS011;3018;48.730;9.336;2024-02-21T00:41:12;14.98;;;6.22;;
5981;SDS011;3018;48.730;9.336;2024-02-21T00:43:39;12.75;;;6.43;;
5981;SDS011;3018;48.730;9.336;2024-02-21T00:46:05;13.82;;;6.55;;
5981;SDS011;3018;48.730;9.336;2024-02-21T00:48:32;16.30;;;6.63;;
5981;SDS011;3018;48.730;9.336;2024-02-21T00:50:59;14.15;;;6.30;;
5981;SDS011;3018;48.730;9.336;2024-02-21T00:53:25;12.75;;;6.47;;
5981;SDS011;3018;48.730;9.336;2024-02-21T00:55:51;10.43;;;6.80;;
5981;SDS011;3018;48.730;9.336;2024-02-21T00:58:17;17.92;;;7.03;;
5981;SDS011;3018;48.730;9.336;2024-02-21T01:00:45;15.13;;;7.10;;
5981;SDS011;3018;48.730;9.336;2024-02-21T01:03:11;14.57;;;6.55;;
5981;SDS011;3018;48.730;9.336;2024-02-21T01:05:37;12.50;;;7.13;;
5981;SDS011;3018;48.730;9.336;2024-02-21T01:08:04;14.57;;;7.95;;
5981;SDS011;3018;48.730;9.336;2024-02-21T01:10:31;14.48;;;7.03;;
5981;SDS011;3018;48.730;9.336;2024-02-21T01:12:57;13.15;;;7.55;;
5981;SDS011;3018;48.730;9.336;2024-02-21T01:15:23;20.55;;;8.15;;
5981;SDS011;3018;48.730;9.336;2024-02-21T01:17:51;19.13;;;9.60;;
5981;SDS011;3018;48.730;9.336;2024-02-21T01:20:19;26.65;;;10.13;;
5981;SDS011;3018;48.730;9.336;2024-02-21T01:22:46;19.30;;;10.05;;
5981;SDS011;3018;48.730;9.336;2024-02-21T01:25:12;20.52;;;10.18;;
5981;SDS011;3018;48.730;9.336;2024-02-21T01:27:38;25.10;;;11.15;;
5981;SDS011;3018;48.730;9.336;2024-02-21T01:30:05;19.52;;;9.68;;
5981;SDS011;3018;48.730;9.336;2024-02-21T01:32:32;17.42;;;8.38;;
5981;SDS011;3018;48.730;9.336;2024-02-21T01:34:59;23.42;;;9.15;;
5981;SDS011;3018;48.730;9.336;2024-02-21T01:37:26;21.50;;;8.18;;
5981;SDS011;3018;48.730;9.336;2024-02-21T01:39:52;20.63;;;8.85;;
5981;SDS011;3018;48.730;9.336;2024-02-21T01:42:19;17.77;;;8.05;;
5981;SDS011;3018;48.730;9.336;2024-02-21T01:44:45;17.52;;;8.05;;
5981;SDS011;3018;48.730;9.336;2024-02-21T01:47:11;13.15;;;7.35;;
5981;SDS011;3018;48.730;9.336;2024-02-21T01:49:38;14.65;;;7.75;;
5981;SDS011;3018;48.730;9.336;2024-02-21T01:52:06;16.55;;;7.95;;
5981;SDS011;3018;48.730;9.336;2024-02-21T01:54:33;14.63;;;7.60;;
5981;SDS011;3018;48.730;9.336;2024-02-21T01:56:59;15.13;;;7.88;;
5981;SDS011;3018;48.730;9.336;2024-02-21T01:59:25;17.50;;;7.93;;
5981;SDS011;3018;48.730;9.336;2024-02-21T02:01:52;10.07;;;6.95;;
5981;SDS011;3018;48.730;9.336;2024-02-21T02:04:20;15.05;;;7.15;;
5981;SDS011;3018;48.730;9.336;2024-02-21T02:06:46;17.02;;;8.10;;
5981;SDS011;3018;48.730;9.336;2024-02-21T02:09:14;12.25;;;7.57;;
5981;SDS011;3018;48.730;9.336;2024-02-21T02:11:40;15.60;;;8.05;;
5981;SDS011;3018;48.730;9.336;2024-02-21T02:14:06;16.80;;;7.60;;
5981;SDS011;3018;48.730;9.336;2024-02-21T02:16:32;14.68;;;7.43;;
5981;SDS011;3018;48.730;9.336;2024-02-21T02:18:59;14.52;;;7.25;;
5981;SDS011;3018;48.730;9.336;2024-02-21T02:21:27;13.68;;;7.32;;
5981;SDS011;3018;48.730;9.336;2024-02-21T02:23:55;11.73;;;7.15;;
5981;SDS011;3018;48.730;9.336;2024-02-21T02:26:21;11.95;;;6.82;;
5981;SDS011;3018;48.730;9.336;2024-02-21T02:28:47;13.48;;;6.78;;
5981;SDS011;3018;48.730;9.336;2024-02-21T02:31:14;13.70;;;6.57;;
5981;SDS011;3018;48.730;9.336;2024-02-21T02:33:42;10.60;;;5.90;;
5981;SDS011;3018;48.730;9.336;2024-02-21T02:36:08;11.23;;;6.80;;
5981;SDS011;3018;48.730;9.336;2024-02-21T02:38:34;12.00;;;5.88;;
5981;SDS011;3018;48.730;9.336;2024-02-21T02:41:02;14.05;;;6.18;;
5981;SDS011;3018;48.730;9.336;2024-02-21T02:43:28;16.05;;;6.50;;
5981;SDS011;3018;48.730;9.336;2024-02-21T02:45:54;10.05;;;5.82;;
5981;SDS011;3018;48.730;9.336;2024-02-21T02:48:21;11.90;;;6.40;;
5981;SDS011;3018;48.730;9.336;2024-02-21T02:50:47;15.98;;;6.72;;
5981;SDS011;3018;48.730;9.336;2024-02-21T02:53:14;10.65;;;6.07;;
5981;SDS011;3018;48.730;9.336;2024-02-21T02:55:40;20.45;;;6.40;;
5981;SDS011;3018;48.730;9.336;2024-02-21T02:58:08;8.68;;;5.80;;
5981;SDS011;3018;48.730;9.336;2024-02-21T03:00:35;12.07;;;6.70;;
5981;SDS011;3018;48.730;9.336;2024-02-21T03:03:01;13.75;;;6.28;;
5981;SDS011;3018;48.730;9.336;2024-02-21T03:05:28;14.40;;;6.00;;
5981;SDS011;3018;48.730;9.336;2024-02-21T03:07:55;11.57;;;5.90;;
5981;SDS011;3018;48.730;9.336;2024-02-21T03:10:21;10.18;;;5.55;;
5981;SDS011;3018;48.730;9.336;2024-02-21T03:12:47;13.80;;;5.65;;
5981;SDS011;3018;48.730;9.336;2024-02-21T03:15:15;9.98;;;5.45;;
5981;SDS011;3018;48.730;9.336;2024-02-21T03:17:41;11.27;;;5.65;;
5981;SDS011;3018;48.730;9.336;2024-02-21T03:20:08;12.10;;;5.60;;
5981;SDS011;3018;48.730;9.336;2024-02-21T03:22:34;11.63;;;5.63;;
5981;SDS011;3018;48.730;9.336;2024-02-21T03:25:01;11.00;;;4.50;;
5981;SDS011;3018;48.730;9.336;2024-02-21T03:27:27;11.32;;;5.13;;
5981;SDS011;3018;48.730;9.336;2024-02-21T03:29:53;12.85;;;5.32;;
5981;SDS011;3018;48.730;9.336;2024-02-21T03:32:21;10.95;;;5.22;;
5981;SDS011;3018;48.730;9.336;2024-02-21T03:34:47;7.45;;;4.60;;
5981;SDS011;3018;48.730;9.336;2024-02-21T03:37:13;13.13;;;4.90;;
5981;SDS011;3018;48.730;9.336;2024-02-21T03:39:40;10.07;;;4.57;;
5981;SDS011;3018;48.730;9.336;2024-02-21T03:42:06;9.88;;;4.63;;
5981;SDS011;3018;48.730;9.336;2024-02-21T03:44:32;10.50;;;4.43;;
5981;SDS011;3018;48.730;9.336;2024-02-21T03:46:58;11.05;;;4.68;;
5981;SDS011;3018;48.730;9.336;2024-02-21T03:49:26;10.02;;;5.03;;
5981;SDS011;3018;48.730;9.336;2024-02-21T03:51:52;11.65;;;5.97;;
5981;SDS011;3018;48.730;9.336;2024-02-21T03:54:19;8.88;;;5.28;;
5981;SDS011;3018;48.730;9.336;2024-02-21T03:56:45;12.38;;;5.95;;
5981;SDS011;3018;48.730;9.336;2024-02-21T03:59:12;15.75;;;6.03;;
5981;SDS011;3018;48.730;9.336;2024-02-21T04:01:39;14.80;;;6.28;;
5981;SDS011;3018;48.730;9.336;2024-02-21T04:04:05;11.73;;;5.63;;
5981;SDS011;3018;48.730;9.336;2024-02-21T04:06:33;10.25;;;5.75;;
5981;SDS011;3018;48.730;9.336;2024-02-21T04:08:59;10.68;;;5.80;;
5981;SDS011;3018;48.730;9.336;2024-02-21T04:11:25;11.05;;;5.60;;
5981;SDS011;3018;48.730;9.336;2024-02-21T04:13:51;9.18;;;5.40;;
5981;SDS011;3018;48.730;9.336;2024-02-21T04:16:18;10.38;;;6.00;;
5981;SDS011;3018;48.730;9.336;2024-02-21T04:18:44;11.23;;;6.07;;
5981;SDS011;3018;48.730;9.336;2024-02-21T04:21:13;14.02;;;5.47;;
5981;SDS011;3018;48.730;9.336;2024-02-21T04:23:41;13.82;;;5.47;;
5981;SDS011;3018;48.730;9.336;2024-02-21T04:26:07;9.77;;;4.85;;
5981;SDS011;3018;48.730;9.336;2024-02-21T04:28:34;7.82;;;4.70;;
5981;SDS011;3018;48.730;9.336;2024-02-21T04:31:00;11.40;;;5.25;;
5981;SDS011;3018;48.730;9.336;2024-02-21T04:33:26;9.63;;;4.90;;
5981;SDS011;3018;48.730;9.336;2024-02-21T04:35:52;8.80;;;5.00;;
5981;SDS011;3018;48.730;9.336;2024-02-21T04:38:20;10.55;;;5.25;;
5981;SDS011;3018;48.730;9.336;2024-02-21T04:40:47;10.23;;;5.10;;
5981;SDS011;3018;48.730;9.336;2024-02-21T04:43:14;10.02;;;5.75;;
5981;SDS011;3018;48.730;9.336;2024-02-21T04:45:40;8.98;;;4.65;;
5981;SDS011;3018;48.730;9.336;2024-02-21T04:48:06;9.32;;;4.35;;
5981;SDS011;3018;48.730;9.336;2024-02-21T04:50:33;7.68;;;5.45;;
5981;SDS011;3018;48.730;9.336;2024-02-21T04:52:59;12.70;;;5.30;;
5981;SDS011;3018;48.730;9.336;2024-02-21T04:55:25;8.93;;;5.28;;
5981;SDS011;3018;48.730;9.336;2024-02-21T04:57:53;11.82;;;5.10;;
5981;SDS011;3018;48.730;9.336;2024-02-21T05:00:19;12.05;;;5.28;;
5981;SDS011;3018;48.730;9.336;2024-02-21T05:02:45;12.73;;;4.70;;
5981;SDS011;3018;48.730;9.336;2024-02-21T05:05:11;12.45;;;4.97;;
5981;SDS011;3018;48.730;9.336;2024-02-21T05:07:40;9.25;;;5.07;;
5981;SDS011;3018;48.730;9.336;2024-02-21T05:10:07;13.82;;;5.10;;
5981;SDS011;3018;48.730;9.336;2024-02-21T05:12:33;9.70;;;4.57;;
5981;SDS011;3018;48.730;9.336;2024-02-21T05:15:01;8.88;;;4.80;;
5981;SDS011;3018;48.730;9.336;2024-02-21T05:17:27;10.07;;;4.78;;
5981;SDS011;3018;48.730;9.336;2024-02-21T05:19:54;7.93;;;4.82;;
5981;SDS011;3018;48.730;9.336;2024-02-21T05:22:20;7.75;;;4.65;;
5981;SDS011;3018;48.730;9.336;2024-02-21T05:24:46;6.05;;;3.60;;
5981;SDS011;3018;48.730;9.336;2024-02-21T05:27:12;10.57;;;4.57;;
5981;SDS011;3018;48.730;9.336;2024-02-21T05:29:39;9.07;;;4.25;;
5981;SDS011;3018;48.730;9.336;2024-02-21T05:32:06;11.82;;;4.50;;
5981;SDS011;3018;48.730;9.336;2024-02-21T05:34:33;4.57;;;4.15;;
5981;SDS011;3018;48.730;9.336;2024-02-21T05:36:59;9.65;;;4.00;;
5981;SDS011;3018;48.730;9.336;2024-02-21T05:39:26;7.10;;;4.05;;
5981;SDS011;3018;48.730;9.336;2024-02-21T05:41:54;8.52;;;3.78;;
5981;SDS011;3018;48.730;9.336;2024-02-21T05:44:20;7.68;;;3.55;;
5981;SDS011;3018;48.730;9.336;2024-02-21T05:46:47;4.38;;;3.00;;
5981;SDS011;3018;48.730;9.336;2024-02-21T05:49:15;6.53;;;2.88;;
5981;SDS011;3018;48.730;9.336;2024-02-21T05:51:41;3.50;;;2.53;;
5981;SDS011;3018;48.730;9.336;2024-02-21T05:54:07;9.25;;;3.28;;
5981;SDS011;3018;48.730;9.336;2024-02-21T05:56:33;6.15;;;3.22;;
5981;SDS011;3018;48.730;9.336;2024-02-21T05:59:00;5.05;;;3.25;;
5981;SDS011;3018;48.730;9.336;2024-02-21T06:01:26;6.15;;;3.20;;
5981;SDS011;3018;48.730;9.336;2024-02-21T06:03:52;6.95;;;3.33;;
5981;SDS011;3018;48.730;9.336;2024-02-21T06:06:20;6.25;;;3.53;;
5981;SDS011;3018;48.730;9.336;2024-02-21T06:08:47;10.43;;;3.58;;
5981;SDS011;3018;48.730;9.336;2024-02-21T06:11:13;4.90;;;3.55;;
5981;SDS011;3018;48.730;9.336;2024-02-21T06:13:40;8.43;;;3.70;;
5981;SDS011;3018;48.730;9.336;2024-02-21T06:16:06;6.63;;;3.40;;
5981;SDS011;3018;48.730;9.336;2024-02-21T06:18:34;9.70;;;3.38;;
5981;SDS011;3018;48.730;9.336;2024-02-21T06:21:01;10.15;;;3.45;;
5981;SDS011;3018;48.730;9.336;2024-02-21T06:23:28;7.72;;;4.10;;
5981;SDS011;3018;48.730;9.336;2024-02-21T06:25:55;12.95;;;4.90;;
5981;SDS011;3018;48.730;9.336;2024-02-21T06:28:21;12.20;;;4.30;;
5981;SDS011;3018;48.730;9.336;2024-02-21T06:30:47;10.30;;;4.32;;
5981;SDS011;3018;48.730;9.336;2024-02-21T06:33:13;6.10;;;4.60;;
5981;SDS011;3018;48.730;9.336;2024-02-21T06:35:40;7.43;;;4.10;;
5981;SDS011;3018;48.730;9.336;2024-02-21T06:38:07;8.60;;;4.25;;
5981;SDS011;3018;48.730;9.336;2024-02-21T06:40:35;11.40;;;5.10;;
5981;SDS011;3018;48.730;9.336;2024-02-21T06:43:04;9.10;;;5.40;;
5981;SDS011;3018;48.730;9.336;2024-02-21T06:45:31;11.20;;;5.45;;
5981;SDS011;3018;48.730;9.336;2024-02-21T06:47:57;9.63;;;5.00;;
5981;SDS011;3018;48.730;9.336;2024-02-21T06:50:23;13.10;;;4.68;;
5981;SDS011;3018;48.730;9.336;2024-02-21T06:52:49;9.23;;;5.60;;
5981;SDS011;3018;48.730;9.336;2024-02-21T06:55:16;10.80;;;6.22;;
5981;SDS011;3018;48.730;9.336;2024-02-21T06:57:43;11.02;;;6.07;;
5981;SDS011;3018;48.730;9.336;2024-02-21T07:00:10;18.23;;;7.10;;
5981;SDS011;3018;48.730;9.336;2024-02-21T07:02:36;14.55;;;6.30;;
5981;SDS011;3018;48.730;9.336;2024-02-21T07:05:03;15.90;;;7.18;;
5981;SDS011;3018;48.730;9.336;2024-02-21T07:07:30;11.02;;;5.97;;
5981;SDS011;3018;48.730;9.336;2024-02-21T07:09:56;16.52;;;6.63;;
5981;SDS011;3018;48.730;9.336;2024-02-21T07:12:40;12.68;;;6.88;;
5981;SDS011;3018;48.730;9.336;2024-02-21T07:15:09;15.48;;;6.88;;
5981;SDS011;3018;48.730;9.336;2024-02-21T07:17:35;20.15;;;7.97;;
5981;SDS011;3018;48.730;9.336;2024-02-21T07:20:02;18.90;;;8.52;;
5981;SDS011;3018;48.730;9.336;2024-02-21T07:22:40;13.90;;;7.85;;
5981;SDS011;3018;48.730;9.336;2024-02-21T07:25:07;16.88;;;7.85;;
5981;SDS011;3018;48.730;9.336;2024-02-21T07:27:33;17.85;;;8.38;;
5981;SDS011;3018;48.730;9.336;2024-02-21T07:29:59;12.60;;;7.18;;
5981;SDS011;3018;48.730;9.336;2024-02-21T07:32:27;16.23;;;6.53;;
5981;SDS011;3018;48.730;9.336;2024-02-21T07:34:53;12.30;;;6.45;;
5981;SDS011;3018;48.730;9.336;2024-02-21T07:37:19;13.63;;;6.80;;
5981;SDS011;3018;48.730;9.336;2024-02-21T07:39:46;16.08;;;6.85;;
5981;SDS011;3018;48.730;9.336;2024-02-21T07:42:12;12.20;;;6.82;;
5981;SDS011;3018;48.730;9.336;2024-02-21T07:44:38;12.50;;;5.93;;
5981;SDS011;3018;48.730;9.336;2024-02-21T07:47:05;15.65;;;6.22;;
5981;SDS011;3018;48.730;9.336;2024-02-21T07:49:33;16.90;;;6.90;;
5981;SDS011;3018;48.730;9.336;2024-02-21T07:52:06;8.95;;;5.88;;
5981;SDS011;3018;48.730;9.336;2024-02-21T07:54:32;13.23;;;6.38;;
5981;SDS011;3018;48.730;9.336;2024-02-21T07:56:59;14.45;;;5.82;;
5981;SDS011;3018;48.730;9.336;2024-02-21T07:59:25;9.90;;;6.13;;
5981;SDS011;3018;48.730;9.336;2024-02-21T08:01:51;8.90;;;5.18;;
5981;SDS011;3018;48.730;9.336;2024-02-21T08:04:17;15.63;;;6.65;;
5981;SDS011;3018;48.730;9.336;2024-02-21T08:06:45;10.13;;;5.97;;
5981;SDS011;3018;48.730;9.336;2024-02-21T08:09:13;16.77;;;6.63;;
5981;SDS011;3018;48.730;9.336;2024-02-21T08:11:39;19.13;;;6.75;;
5981;SDS011;3018;48.730;9.336;2024-02-21T08:14:06;22.65;;;7.43;;
5981;SDS011;3018;48.730;9.336;2024-02-21T08:16:33;13.07;;;6.35;;
5981;SDS011;3018;48.730;9.336;2024-02-21T08:18:59;17.20;;;6.20;;
5981;SDS011;3018;48.730;9.336;2024-02-21T08:21:27;13.45;;;6.38;;
5981;SDS011;3018;48.730;9.336;2024-02-21T08:23:55;14.00;;;5.85;;
5981;SDS011;3018;48.730;9.336;2024-02-21T08:26:22;13.43;;;6.38;;
5981;SDS011;3018;48.730;9.336;2024-02-21T08:28:48;16.17;;;6.40;;
5981;SDS011;3018;48.730;9.336;2024-02-21T08:31:18;16.45;;;6.03;;
5981;SDS011;3018;48.730;9.336;2024-02-21T08:33:44;12.00;;;6.03;;
5981;SDS011;3018;48.730;9.336;2024-02-21T08:36:16;14.77;;;6.50;;
5981;SDS011;3018;48.730;9.336;2024-02-21T08:38:43;14.10;;;5.93;;
5981;SDS011;3018;48.730;9.336;2024-02-21T08:41:10;16.50;;;5.30;;
5981;SDS011;3018;48.730;9.336;2024-02-21T08:43:37;13.88;;;4.95;;
5981;SDS011;3018;48.730;9.336;2024-02-21T08:46:03;13.10;;;4.85;;
5981;SDS011;3018;48.730;9.336;2024-02-21T08:48:29;7.05;;;4.18;;
5981;SDS011;3018;48.730;9.336;2024-02-21T08:50:56;13.60;;;4.65;;
5981;SDS011;3018;48.730;9.336;2024-02-21T08:53:22;11.55;;;4.57;;
5981;SDS011;3018;48.730;9.336;2024-02-21T08:55:48;11.07;;;4.15;;
5981;SDS011;3018;48.730;9.336;2024-02-21T08:58:16;10.57;;;5.20;;
5981;SDS011;3018;48.730;9.336;2024-02-21T09:00:42;10.95;;;4.10;;
5981;SDS011;3018;48.730;9.336;2024-02-21T09:03:08;6.07;;;3.70;;
5981;SDS011;3018;48.730;9.336;2024-02-21T09:07:59;10.13;;;4.03;;
5981;SDS011;3018;48.730;9.336;2024-02-21T09:10:26;4.75;;;3.17;;
5981;SDS011;3018;48.730;9.336;2024-02-21T09:12:52;11.30;;;3.80;;
5981;SDS011;3018;48.730;9.336;2024-02-21T09:15:20;7.88;;;3.40;;
5981;SDS011;3018;48.730;9.336;2024-02-21T09:17:46;7.60;;;3.05;;
5981;SDS011;3018;48.730;9.336;2024-02-21T09:20:12;8.63;;;3.22;;
5981;SDS011;3018;48.730;9.336;2024-02-21T09:22:41;13.32;;;3.67;;
5981;SDS011;3018;48.730;9.336;2024-02-21T09:25:07;8.73;;;3.17;;
5981;SDS011;3018;48.730;9.336;2024-02-21T09:27:36;9.07;;;3.38;;
5981;SDS011;3018;48.730;9.336;2024-02-21T09:30:03;6.15;;;3.13;;
5981;SDS011;3018;48.730;9.336;2024-02-21T09:32:31;9.80;;;3.42;;
5981;SDS011;3018;48.730;9.336;2024-02-21T09:34:58;9.25;;;3.95;;
5981;SDS011;3018;48.730;9.336;2024-02-21T09:37:24;9.23;;;3.58;;
5981;SDS011;3018;48.730;9.336;2024-02-21T09:39:51;9.88;;;3.28;;
5981;SDS011;3018;48.730;9.336;2024-02-21T09:42:18;8.52;;;4.05;;
5981;SDS011;3018;48.730;9.336;2024-02-21T09:44:45;7.50;;;3.42;;
5981;SDS011;3018;48.730;9.336;2024-02-21T09:47:19;11.77;;;3.72;;
5981;SDS011;3018;48.730;9.336;2024-02-21T09:49:49;6.93;;;3.10;;
5981;SDS011;3018;48.730;9.336;2024-02-21T09:52:17;6.55;;;2.85;;
5981;SDS011;3018;48.730;9.336;2024-02-21T09:54:45;5.82;;;2.72;;
5981;SDS011;3018;48.730;9.336;2024-02-21T09:57:11;8.50;;;3.00;;
5981;SDS011;3018;48.730;9.336;2024-02-21T09:59:38;7.00;;;2.83;;
5981;SDS011;3018;48.730;9.336;2024-02-21T10:02:06;7.75;;;2.80;;
5981;SDS011;3018;48.730;9.336;2024-02-21T10:04:33;10.18;;;2.80;;
5981;SDS011;3018;48.730;9.336;2024-02-21T10:07:00;8.18;;;3.17;;
5981;SDS011;3018;48.730;9.336;2024-02-21T10:09:27;9.02;;;2.67;;
5981;SDS011;3018;48.730;9.336;2024-02-21T10:11:53;6.10;;;2.72;;
5981;SDS011;3018;48.730;9.336;2024-02-21T10:14:20;3.50;;;1.83;;
5981;SDS011;3018;48.730;9.336;2024-02-21T10:16:47;9.52;;;2.45;;
5981;SDS011;3018;48.730;9.336;2024-02-21T10:19:17;6.85;;;2.65;;
5981;SDS011;3018;48.730;9.336;2024-02-21T10:21:43;5.20;;;2.30;;
5981;SDS011;3018;48.730;9.336;2024-02-21T10:24:12;10.18;;;2.45;;
5981;SDS011;3018;48.730;9.336;2024-02-21T10:26:38;4.72;;;2.08;;
5981;SDS011;3018;48.730;9.336;2024-02-21T10:29:04;3.97;;;2.20;;
5981;SDS011;3018;48.730;9.336;2024-02-21T10:31:30;7.68;;;2.78;;
5981;SDS011;3018;48.730;9.336;2024-02-21T10:33:57;6.25;;;2.17;;
5981;SDS011;3018;48.730;9.336;2024-02-21T10:36:23;7.50;;;2.30;;
5981;SDS011;3018;48.730;9.336;2024-02-21T10:38:50;9.05;;;2.10;;
5981;SDS011;3018;48.730;9.336;2024-02-21T10:41:19;7.43;;;2.00;;
5981;SDS011;3018;48.730;9.336;2024-02-21T10:43:46;7.15;;;2.08;;
5981;SDS011;3018;48.730;9.336;2024-02-21T10:46:13;12.77;;;2.47;;
5981;SDS011;3018;48.730;9.336;2024-02-21T10:48:42;5.38;;;1.80;;
5981;SDS011;3018;48.730;9.336;2024-02-21T10:51:12;3.50;;;1.85;;
5981;SDS011;3018;48.730;9.336;2024-02-21T10:53:41;5.78;;;1.92;;
5981;SDS011;3018;48.730;9.336;2024-02-21T10:56:13;2.35;;;1.50;;
5981;SDS011;3018;48.730;9.336;2024-02-21T10:58:43;7.40;;;1.92;;
5981;SDS011;3018;48.730;9.336;2024-02-21T11:01:10;6.50;;;1.77;;
5981;SDS011;3018;48.730;9.336;2024-02-21T11:03:37;4.03;;;1.90;;
5981;SDS011;3018;48.730;9.336;2024-02-21T11:06:04;6.53;;;1.98;;
5981;SDS011;3018;48.730;9.336;2024-02-21T11:08:31;5.75;;;1.80;;
5981;SDS011;3018;48.730;9.336;2024-02-21T11:10:58;9.25;;;2.03;;
5981;SDS011;3018;48.730;9.336;2024-02-21T11:13:29;3.85;;;1.55;;
5981;SDS011;3018;48.730;9.336;2024-02-21T11:16:06;3.53;;;1.88;;
5981;SDS011;3018;48.730;9.336;2024-02-21T11:18:32;4.40;;;2.00;;
5981;SDS011;3018;48.730;9.336;2024-02-21T11:20:59;4.32;;;2.10;;
5981;SDS011;3018;48.730;9.336;2024-02-21T11:23:25;5.72;;;1.70;;
5981;SDS011;3018;48.730;9.336;2024-02-21T11:25:52;8.60;;;2.00;;
5981;SDS011;3018;48.730;9.336;2024-02-21T11:28:25;3.90;;;1.48;;
5981;SDS011;3018;48.730;9.336;2024-02-21T11:30:51;4.80;;;1.60;;
5981;SDS011;3018;48.730;9.336;2024-02-21T11:33:21;4.47;;;1.50;;
5981;SDS011;3018;48.730;9.336;2024-02-21T11:35:48;4.93;;;1.80;;
5981;SDS011;3018;48.730;9.336;2024-02-21T11:38:14;3.65;;;1.50;;
5981;SDS011;3018;48.730;9.336;2024-02-21T11:40:41;4.32;;;1.60;;
5981;SDS011;3018;48.730;9.336;2024-02-21T11:43:07;3.10;;;1.10;;
5981;SDS011;3018;48.730;9.336;2024-02-21T11:45:34;3.58;;;1.80;;
5981;SDS011;3018;48.730;9.336;2024-02-21T11:48:00;3.70;;;1.80;;
5981;SDS011;3018;48.730;9.336;2024-02-21T11:50:29;2.72;;;1.50;;
5981;SDS011;3018;48.730;9.336;2024-02-21T11:52:57;1.70;;;1.35;;
5981;SDS011;3018;48.730;9.336;2024-02-21T11:55:23;4.57;;;1.55;;
5981;SDS011;3018;48.730;9.336;2024-02-21T11:57:49;5.10;;;1.33;;
5981;SDS011;3018;48.730;9.336;2024-02-21T12:00:16;1.50;;;1.20;;
5981;SDS011;3018;48.730;9.336;2024-02-21T12:02:43;4.60;;;1.23;;
5981;SDS011;3018;48.730;9.336;2024-02-21T12:05:10;3.17;;;1.40;;
5981;SDS011;3018;48.730;9.336;2024-02-21T12:07:37;2.33;;;1.40;;
5981;SDS011;3018;48.730;9.336;2024-02-21T12:10:06;3.60;;;1.27;;
5981;SDS011;3018;48.730;9.336;2024-02-21T12:12:33;4.55;;;1.25;;
5981;SDS011;3018;48.730;9.336;2024-02-21T12:15:01;3.55;;;1.50;;
5981;SDS011;3018;48.730;9.336;2024-02-21T12:17:29;1.70;;;1.33;;
5981;SDS011;3018;48.730;9.336;2024-02-21T12:19:55;5.03;;;1.50;;
5981;SDS011;3018;48.730;9.336;2024-02-21T12:22:22;2.35;;;1.17;;
5981;SDS011;3018;48.730;9.336;2024-02-21T12:24:50;2.22;;;1.25;;
5981;SDS011;3018;48.730;9.336;2024-02-21T12:27:16;4.05;;;1.08;;
5981;SDS011;3018;48.730;9.336;2024-02-21T12:29:42;3.72;;;1.50;;
5981;SDS011;3018;48.730;9.336;2024-02-21T12:32:09;8.73;;;2.15;;
5981;SDS011;3018;48.730;9.336;2024-02-21T12:34:35;2.25;;;1.48;;
5981;SDS011;3018;48.730;9.336;2024-02-21T12:37:01;3.33;;;1.60;;
5981;SDS011;3018;48.730;9.336;2024-02-21T12:39:28;3.53;;;0.90;;
5981;SDS011;3018;48.730;9.336;2024-02-21T12:41:56;3.63;;;1.00;;
5981;SDS011;3018;48.730;9.336;2024-02-21T12:44:22;2.75;;;1.13;;
5981;SDS011;3018;48.730;9.336;2024-02-21T12:46:49;1.02;;;0.90;;
5981;SDS011;3018;48.730;9.336;2024-02-21T12:49:18;2.80;;;0.98;;
5981;SDS011;3018;48.730;9.336;2024-02-21T12:51:45;1.77;;;1.25;;
5981;SDS011;3018;48.730;9.336;2024-02-21T12:54:11;4.40;;;1.08;;
5981;SDS011;3018;48.730;9.336;2024-02-21T12:56:37;5.65;;;1.38;;
5981;SDS011;3018;48.730;9.336;2024-02-21T12:59:06;5.03;;;0.90;;
5981;SDS011;3018;48.730;9.336;2024-02-21T13:01:34;0.73;;;0.73;;
5981;SDS011;3018;48.730;9.336;2024-02-21T13:04:00;3.42;;;1.15;;
5981;SDS011;3018;48.730;9.336;2024-02-21T13:06:26;1.73;;;1.05;;
5981;SDS011;3018;48.730;9.336;2024-02-21T13:08:53;3.72;;;0.95;;
5981;SDS011;3018;48.730;9.336;2024-02-21T13:11:19;2.25;;;0.95;;
5981;SDS011;3018;48.730;9.336;2024-02-21T13:13:45;1.73;;;1.00;;
5981;SDS011;3018;48.730;9.336;2024-02-21T13:16:13;2.53;;;1.10;;
5981;SDS011;3018;48.730;9.336;2024-02-21T13:18:39;1.48;;;1.15;;
5981;SDS011;3018;48.730;9.336;2024-02-21T13:21:07;1.23;;;0.90;;
5981;SDS011;3018;48.730;9.336;2024-02-21T13:23:34;4.57;;;0.80;;
5981;SDS011;3018;48.730;9.336;2024-02-21T13:26:00;2.95;;;0.85;;
5981;SDS011;3018;48.730;9.336;2024-02-21T13:28:26;1.20;;;1.15;;
5981;SDS011;3018;48.730;9.336;2024-02-21T13:30:52;0.95;;;0.93;;
5981;SDS011;3018;48.730;9.336;2024-02-21T13:33:20;4.15;;;1.15;;
5981;SDS011;3018;48.730;9.336;2024-02-21T13:35:46;3.72;;;0.80;;
5981;SDS011;3018;48.730;9.336;2024-02-21T13:38:13;2.28;;;1.20;;
5981;SDS011;3018;48.730;9.336;2024-02-21T13:40:39;1.35;;;0.95;;
5981;SDS011;3018;48.730;9.336;2024-02-21T13:43:07;1.30;;;0.80;;
5981;SDS011;3018;48.730;9.336;2024-02-21T13:45:33;1.40;;;0.77;;
5981;SDS011;3018;48.730;9.336;2024-02-21T13:47:59;1.67;;;0.88;;
5981;SDS011;3018;48.730;9.336;2024-02-21T13:50:29;3.60;;;1.10;;
5981;SDS011;3018;48.730;9.336;2024-02-21T13:52:56;2.63;;;0.90;;
5981;SDS011;3018;48.730;9.336;2024-02-21T13:55:22;1.63;;;1.05;;
5981;SDS011;3018;48.730;9.336;2024-02-21T13:57:51;1.25;;;1.00;;
5981;SDS011;3018;48.730;9.336;2024-02-21T14:00:17;1.98;;;1.05;;
5981;SDS011;3018;48.730;9.336;2024-02-21T14:02:46;1.88;;;1.10;;
5981;SDS011;3018;48.730;9.336;2024-02-21T14:05:12;1.30;;;0.95;;
5981;SDS011;3018;48.730;9.336;2024-02-21T14:07:40;2.33;;;1.10;;
5981;SDS011;3018;48.730;9.336;2024-02-21T14:10:07;1.98;;;0.90;;
5981;SDS011;3018;48.730;9.336;2024-02-21T14:12:34;1.92;;;1.10;;
5981;SDS011;3018;48.730;9.336;2024-02-21T14:15:00;1.85;;;1.10;;
5981;SDS011;3018;48.730;9.336;2024-02-21T14:17:27;1.50;;;1.10;;
5981;SDS011;3018;48.730;9.336;2024-02-21T14:19:53;1.02;;;0.95;;
5981;SDS011;3018;48.730;9.336;2024-02-21T14:22:19;4.95;;;1.00;;
5981;SDS011;3018;48.730;9.336;2024-02-21T14:24:47;2.25;;;0.90;;
5981;SDS011;3018;48.730;9.336;2024-02-21T14:27:13;2.97;;;1.42;;
5981;SDS011;3018;48.730;9.336;2024-02-21T14:29:39;4.93;;;1.00;;
5981;SDS011;3018;48.730;9.336;2024-02-21T14:32:06;1.77;;;0.90;;
5981;SDS011;3018;48.730;9.336;2024-02-21T14:34:34;6.45;;;1.00;;
5981;SDS011;3018;48.730;9.336;2024-02-21T14:37:01;1.90;;;1.10;;
5981;SDS011;3018;48.730;9.336;2024-02-21T14:39:29;5.53;;;1.27;;
5981;SDS011;3018;48.730;9.336;2024-02-21T14:41:56;2.22;;;1.00;;
5981;SDS011;3018;48.730;9.336;2024-02-21T14:44:22;3.60;;;0.95;;
5981;SDS011;3018;48.730;9.336;2024-02-21T14:46:49;1.50;;;1.13;;
5981;SDS011;3018;48.730;9.336;2024-02-21T14:49:15;3.03;;;1.20;;
5981;SDS011;3018;48.730;9.336;2024-02-21T14:51:41;2.33;;;1.20;;
5981;SDS011;3018;48.730;9.336;2024-02-21T14:54:07;4.47;;;1.23;;
5981;SDS011;3018;48.730;9.336;2024-02-21T14:56:34;2.85;;;1.10;;
5981;SDS011;3018;48.730;9.336;2024-02-21T14:59:02;1.30;;;0.98;;
5981;SDS011;3018;48.730;9.336;2024-02-21T15:01:28;1.13;;;0.98;;
5981;SDS011;3018;48.730;9.336;2024-02-21T15:03:55;4.60;;;1.30;;
5981;SDS011;3018;48.730;9.336;2024-02-21T15:06:21;1.60;;;0.95;;
5981;SDS011;3018;48.730;9.336;2024-02-21T15:08:47;2.88;;;1.30;;